Todos
Dickson Muni Airport (Dickson, TN) M02 Condiciones meteorológicas
|
Dickson, TN (M02)
Cielo despejado
Vientos calmos |
|
24 °C |
There is no TAF data available at M02 or any nearby airports.
Historial METAR M02 reciente
| Date | Time (CDT) | Flight Rules | Wind Dir. | Speed | Type | Height AGL (ft) | Visibility | Temp (°C) | Temp (°F) | Dew Point (°C) | Dew Point (°F) | Rel. Humid. | Pressure | Density Altitude | Remarks |
|---|---|---|---|---|---|---|---|---|---|---|---|---|---|---|---|
| 01-sep | 02:15AM | VFR | 180° | 3 kt | 10 miles | 24° | 75° | 21° | 69° | 83% | 30.08 in Hg | 1.812 ft | |||
| 01-sep | 01:55AM | VFR | Calm | 10 miles | 25° | 77° | 21° | 69° | 79% | 30.08 in Hg | 1.932 ft | ||||
| 01-sep | 01:15AM | VFR | Calm | 10 miles | 24° | 75° | 22° | 71° | 89% | 30.08 in Hg | 1.812 ft | ||||
| 01-sep | 12:50AM | VFR | Calm | 10 miles | 24° | 75° | 22° | 71° | 89% | 30.09 in Hg | 1.802 ft | ||||
| 01-sep | 12:35AM | VFR | Calm | 10 miles | 24° | 75° | 22° | 71° | 89% | 30.09 in Hg | 1.802 ft | ||||
| 01-sep | 12:15AM | VFR | Calm | 10 miles | 24° | 75° | 22° | 71° | 89% | 30.09 in Hg | 1.802 ft | ||||
| 31-ago | 11:55PM | VFR | Calm | 10 miles | 24° | 75° | 22° | 71° | 89% | 30.09 in Hg | 1.802 ft | ||||
| 31-ago | 11:35PM | VFR | Calm | 10 miles | 24° | 75° | 22° | 71° | 89% | 30.09 in Hg | 1.802 ft | ||||
| 31-ago | 11:15PM | VFR | Calm | 10 miles | 24° | 75° | 22° | 71° | 89% | 30.09 in Hg | 1.802 ft | ||||
| 31-ago | 10:55PM | VFR | Calm | 10 miles | 24° | 75° | 22° | 71° | 89% | 30.09 in Hg | 1.802 ft | ||||
| 31-ago | 10:35PM | VFR | Calm | 10 miles | 24° | 75° | 22° | 71° | 89% | 30.09 in Hg | 1.802 ft | ||||
| 31-ago | 10:15PM | VFR | Calm | 10 miles | 24° | 75° | 23° | 73° | 94% | 30.08 in Hg | 1.812 ft | ||||
| 31-ago | 09:55PM | VFR | Calm | 10 miles | 24° | 75° | 23° | 73° | 94% | 30.08 in Hg | 1.812 ft | ||||
| 31-ago | 09:15PM | VFR | Calm | 10 miles | 25° | 77° | 22° | 71° | 83% | 30.07 in Hg | 1.942 ft | ||||
| 31-ago | 08:55PM | VFR | Calm | 10 miles | 25° | 77° | 22° | 71° | 83% | 30.07 in Hg | 1.942 ft | ||||
| 31-ago | 08:15PM | VFR | Calm | 10 miles | 26° | 78° | 22° | 71° | 79% | 30.06 in Hg | 2.072 ft | ||||
| 31-ago | 07:55PM | VFR | Calm | 10 miles | 26° | 78° | 22° | 71° | 79% | 30.06 in Hg | 2.072 ft | ||||
| 31-ago | 07:15PM | VFR | Calm | 10 miles | 28° | 82° | 23° | 73° | 74% | 30.06 in Hg | 2.312 ft | ||||
| 31-ago | 06:15PM | VFR | 220° | 3 kt | 10 miles | 32° | 89° | 21° | 69° | 52% | 30.06 in Hg | 2.792 ft | |||
| 31-ago | 05:50PM | VFR | Calm | 10 miles | 33° | 91° | 21° | 69° | 49% | 30.07 in Hg | 2.902 ft | ||||
| 31-ago | 05:30PM | VFR | 250° | 3 kt | 10 miles | 33° | 91° | 20° | 68° | 46% | 30.07 in Hg | 2.902 ft | |||
| 31-ago | 05:15PM | VFR | Calm | 10 miles | 33° | 91° | 20° | 68° | 46% | 30.07 in Hg | 2.902 ft | ||||
| 31-ago | 04:55PM | VFR | Calm | 10 miles | 33° | 91° | 20° | 68° | 46% | 30.08 in Hg | 2.892 ft | ||||
| 31-ago | 04:15PM | VFR | Calm | 10 miles | 34° | 93° | 21° | 69° | 47% | 30.08 in Hg | 3.012 ft |
Entrar
| Tu navegador no está contemplado. eleva la categoría de tu navegador |
